createdAt,value
2022-09-28T00:01:13.610Z,8.55
2022-09-28T00:03:42.140Z,8.52
2022-09-28T00:06:12.465Z,8.51
2022-09-28T00:08:39.425Z,8.52
2022-09-28T00:11:10.373Z,8.51
2022-09-28T00:13:37.116Z,8.53
2022-09-28T00:16:10.412Z,8.53
2022-09-28T00:18:37.252Z,8.51
2022-09-28T00:21:09.144Z,8.50
2022-09-28T00:23:58.664Z,8.49
2022-09-28T00:26:28.650Z,8.48
2022-09-28T00:28:58.603Z,8.49
2022-09-28T00:31:28.352Z,8.50
2022-09-28T00:33:58.366Z,8.48
2022-09-28T00:36:27.039Z,8.49
2022-09-28T00:38:56.628Z,8.49
2022-09-28T00:41:26.519Z,8.50
2022-09-28T00:43:54.577Z,8.50
2022-09-28T00:46:35.755Z,8.47
2022-09-28T00:49:11.169Z,8.49
2022-09-28T00:51:43.390Z,8.49
2022-09-28T00:54:12.046Z,8.48
2022-09-28T00:56:45.083Z,8.47
2022-09-28T00:59:11.692Z,8.47
2022-09-28T01:01:38.221Z,8.47
2022-09-28T01:04:06.232Z,8.47
2022-09-28T01:06:36.442Z,8.49
2022-09-28T01:09:07.562Z,8.48
2022-09-28T01:11:38.421Z,8.47
2022-09-28T01:14:08.953Z,8.46
2022-09-28T01:16:58.879Z,8.46
2022-09-28T01:19:46.499Z,8.43
2022-09-28T01:22:27.618Z,8.39
2022-09-28T01:25:08.333Z,8.36
2022-09-28T01:27:44.818Z,8.35
2022-09-28T01:30:18.274Z,8.32
2022-09-28T01:32:55.212Z,8.31
2022-09-28T01:35:34.185Z,8.33
2022-09-28T01:38:05.804Z,8.30
2022-09-28T01:40:34.479Z,8.30
2022-09-28T01:43:08.910Z,8.27
2022-09-28T01:45:47.756Z,8.25
2022-09-28T01:48:23.142Z,8.25
2022-09-28T01:50:55.067Z,8.25
2022-09-28T01:53:34.581Z,8.23
2022-09-28T01:56:09.178Z,8.22
2022-09-28T01:58:50.965Z,8.23
2022-09-28T02:01:23.343Z,8.21
2022-09-28T02:04:02.608Z,8.20
2022-09-28T02:06:41.253Z,8.19
2022-09-28T02:09:16.874Z,8.19
2022-09-28T02:11:49.458Z,8.19
2022-09-28T02:14:18.413Z,8.18
2022-09-28T02:16:47.971Z,8.19
2022-09-28T02:19:18.875Z,8.18
2022-09-28T02:21:54.659Z,8.19
2022-09-28T02:24:39.682Z,8.20
2022-09-28T02:27:34.473Z,8.20
2022-09-28T02:30:02.550Z,8.18
2022-09-28T02:32:31.768Z,8.17
2022-09-28T02:34:59.513Z,8.18
2022-09-28T02:37:27.773Z,8.17
2022-09-28T02:39:54.279Z,8.16
2022-09-28T02:42:46.449Z,8.16
2022-09-28T02:46:06.211Z,8.16
2022-09-28T02:49:00.094Z,8.17
2022-09-28T02:51:47.126Z,8.19
2022-09-28T02:54:22.161Z,8.18
2022-09-28T02:57:11.978Z,8.17
2022-09-28T03:00:13.388Z,8.18
2022-09-28T03:03:01.856Z,8.19
2022-09-28T03:06:02.096Z,8.21
2022-09-28T03:08:54.868Z,8.21
2022-09-28T03:11:50.119Z,8.19
2022-09-28T03:14:16.885Z,8.20
2022-09-28T03:16:44.903Z,8.22
2022-09-28T03:19:13.202Z,8.20
2022-09-28T03:21:40.172Z,8.20
2022-09-28T03:24:07.109Z,8.20
2022-09-28T03:26:33.729Z,8.19
2022-09-28T03:29:00.241Z,8.20
2022-09-28T03:31:26.792Z,8.18
2022-09-28T03:33:55.108Z,8.19
2022-09-28T03:36:25.390Z,8.20
2022-09-28T03:38:55.591Z,8.21
2022-09-28T03:41:24.307Z,8.22
2022-09-28T03:43:50.814Z,8.24
2022-09-28T03:46:17.639Z,8.25
2022-09-28T03:48:50.723Z,8.25
2022-09-28T03:51:17.487Z,8.25
2022-09-28T03:53:43.976Z,8.24
2022-09-28T03:56:17.160Z,8.24
2022-09-28T03:58:43.732Z,8.24
2022-09-28T04:01:16.812Z,8.23
2022-09-28T04:03:44.306Z,8.23
2022-09-28T04:06:11.023Z,8.22
2022-09-28T04:08:37.532Z,8.22
2022-09-28T04:11:04.266Z,8.21
2022-09-28T04:13:31.520Z,8.22
2022-09-28T04:15:59.967Z,8.22
2022-09-28T04:18:29.377Z,8.23
2022-09-28T04:21:09.079Z,8.25
2022-09-28T04:23:36.864Z,8.23
2022-09-28T04:26:08.922Z,8.22
2022-09-28T04:28:53.964Z,8.22
2022-09-28T04:31:24.510Z,8.23
2022-09-28T04:33:51.203Z,8.25
2022-09-28T04:36:21.528Z,8.24
2022-09-28T04:38:53.339Z,8.26
2022-09-28T04:41:28.931Z,8.26
2022-09-28T04:43:55.395Z,8.28
2022-09-28T04:46:21.898Z,8.29
2022-09-28T04:48:48.507Z,8.29
2022-09-28T04:51:15.311Z,8.30
2022-09-28T04:53:41.832Z,8.28
2022-09-28T04:56:12.054Z,8.27
2022-09-28T04:58:38.867Z,8.28
2022-09-28T05:01:08.174Z,8.31
2022-09-28T05:03:37.327Z,8.31
2022-09-28T05:06:04.279Z,8.33
2022-09-28T05:08:30.864Z,8.34
2022-09-28T05:11:01.589Z,8.36
2022-09-28T05:13:28.915Z,8.36
2022-09-28T05:16:00.621Z,8.36
2022-09-28T05:18:31.510Z,8.36
2022-09-28T05:21:01.785Z,8.37
2022-09-28T05:23:28.278Z,8.37
2022-09-28T05:25:56.500Z,8.37
2022-09-28T05:28:30.012Z,8.37
2022-09-28T05:31:04.179Z,8.40
2022-09-28T05:33:33.189Z,8.46
2022-09-28T05:36:01.628Z,8.45
2022-09-28T05:38:33.465Z,8.43
2022-09-28T05:41:04.401Z,8.45
2022-09-28T05:43:33.028Z,8.46
2022-09-28T05:46:00.792Z,8.46
2022-09-28T05:48:28.312Z,8.43
2022-09-28T05:50:55.215Z,8.43
2022-09-28T05:53:28.309Z,8.44
2022-09-28T05:55:58.531Z,8.43
2022-09-28T05:58:25.217Z,8.42
2022-09-28T06:00:58.471Z,8.41
2022-09-28T06:03:28.641Z,8.42
2022-09-28T06:05:55.227Z,8.43
2022-09-28T06:08:23.567Z,8.46
2022-09-28T06:10:50.034Z,8.46
2022-09-28T06:13:16.726Z,8.48
2022-09-28T06:15:46.611Z,8.48
2022-09-28T06:18:14.949Z,8.49
2022-09-28T06:20:42.204Z,8.49
2022-09-28T06:23:12.440Z,8.53
2022-09-28T06:25:43.126Z,8.55
2022-09-28T06:28:21.414Z,8.58
2022-09-28T06:30:48.294Z,8.59
2022-09-28T06:33:16.320Z,8.60
2022-09-28T06:35:43.205Z,8.64
2022-09-28T06:38:10.229Z,8.64
2022-09-28T06:40:37.265Z,8.68
2022-09-28T06:43:10.566Z,8.73
2022-09-28T06:45:38.565Z,8.75
2022-09-28T06:48:05.969Z,8.76
2022-09-28T06:50:37.472Z,8.78
2022-09-28T06:53:06.796Z,8.81
2022-09-28T06:55:34.417Z,8.82
2022-09-28T06:58:08.709Z,8.85
2022-09-28T07:00:36.663Z,8.88
2022-09-28T07:03:06.216Z,8.88
2022-09-28T07:05:37.109Z,8.92
2022-09-28T07:08:04.979Z,8.97
2022-09-28T07:10:32.238Z,8.99
2022-09-28T07:13:02.737Z,9.02
2022-09-28T07:15:29.976Z,9.04
2022-09-28T07:18:06.352Z,9.09
2022-09-28T07:20:48.901Z,9.15
2022-09-28T07:23:21.456Z,9.22
2022-09-28T07:25:49.591Z,9.28
2022-09-28T07:28:18.381Z,9.34
2022-09-28T07:30:47.284Z,9.38
2022-09-28T07:33:15.992Z,9.42
2022-09-28T07:35:52.506Z,9.45
2022-09-28T07:38:19.477Z,9.47
2022-09-28T07:41:06.350Z,9.48
2022-09-28T07:43:33.465Z,9.52
2022-09-28T07:46:01.981Z,9.54
2022-09-28T07:48:28.968Z,9.55
2022-09-28T07:50:56.869Z,9.55
2022-09-28T07:53:25.639Z,9.56
2022-09-28T07:55:55.785Z,9.57
2022-09-28T07:58:23.687Z,9.58
2022-09-28T08:00:50.568Z,9.60
2022-09-28T08:03:23.816Z,9.62
2022-09-28T08:05:50.297Z,9.59
2022-09-28T08:08:16.919Z,9.61
2022-09-28T08:10:47.259Z,9.60
2022-09-28T08:13:16.414Z,9.58
2022-09-28T08:15:45.145Z,9.57
2022-09-28T08:18:11.864Z,9.57
2022-09-28T08:20:56.595Z,9.58
2022-09-28T08:23:25.425Z,9.61
2022-09-28T08:25:54.184Z,9.61
2022-09-28T08:28:23.191Z,9.66
2022-09-28T08:30:50.964Z,9.67
2022-09-28T08:33:20.325Z,9.74
2022-09-28T08:35:47.447Z,9.75
2022-09-28T08:38:16.141Z,9.76
2022-09-28T08:41:15.562Z,9.77
2022-09-28T08:43:59.433Z,9.81
2022-09-28T08:46:40.781Z,9.86
2022-09-28T08:49:30.873Z,9.84
2022-09-28T08:52:20.659Z,9.93
2022-09-28T08:54:58.596Z,9.98
2022-09-28T08:57:29.336Z,10.02
2022-09-28T08:59:58.461Z,10.02
2022-09-28T09:02:45.725Z,10.05
2022-09-28T09:05:14.969Z,10.14
2022-09-28T09:08:30.769Z,10.16
2022-09-28T09:11:18.623Z,10.18
2022-09-28T09:14:04.723Z,10.21
2022-09-28T09:17:02.639Z,10.21
2022-09-28T09:19:54.331Z,10.25
2022-09-28T09:22:46.118Z,10.25
2022-09-28T09:25:28.351Z,10.24
2022-09-28T09:28:09.353Z,10.22
2022-09-28T09:30:58.257Z,10.26
2022-09-28T09:33:40.124Z,10.34
2022-09-28T09:36:14.510Z,10.36
2022-09-28T09:39:12.027Z,10.42
2022-09-28T09:41:48.532Z,10.50
2022-09-28T09:44:52.466Z,10.56
2022-09-28T09:47:29.196Z,10.57
2022-09-28T09:50:06.863Z,10.60
2022-09-28T09:52:55.927Z,10.59
2022-09-28T09:55:40.237Z,10.59
2022-09-28T09:58:16.653Z,10.55
2022-09-28T10:00:48.006Z,10.61
2022-09-28T10:03:26.600Z,10.57
2022-09-28T10:06:07.049Z,10.51
2022-09-28T10:09:00.508Z,10.54
2022-09-28T10:11:36.527Z,10.55
2022-09-28T10:14:04.215Z,10.58
2022-09-28T10:16:33.184Z,10.62
2022-09-28T10:19:02.558Z,10.59
2022-09-28T10:21:29.667Z,10.55
2022-09-28T10:23:58.821Z,10.55
2022-09-28T10:26:33.856Z,10.53
2022-09-28T10:29:04.584Z,10.54
2022-09-28T10:31:39.877Z,10.43
2022-09-28T10:34:10.775Z,10.41
2022-09-28T10:37:12.787Z,10.47
2022-09-28T10:39:56.102Z,10.48
2022-09-28T10:42:33.526Z,10.51
2022-09-28T10:45:19.879Z,10.48
2022-09-28T10:47:48.548Z,10.56
2022-09-28T10:50:25.381Z,10.51
2022-09-28T10:52:53.729Z,10.46
2022-09-28T10:55:23.438Z,10.38
2022-09-28T10:57:50.458Z,10.36
2022-09-28T11:00:40.169Z,10.24
2022-09-28T11:03:16.084Z,10.10
2022-09-28T11:05:45.541Z,10.02
2022-09-28T11:08:25.170Z,9.83
2022-09-28T11:11:02.889Z,9.77
2022-09-28T11:13:30.390Z,9.66
2022-09-28T11:15:57.055Z,9.62
2022-09-28T11:18:33.281Z,9.60
2022-09-28T11:21:32.159Z,9.57
2022-09-28T11:24:19.921Z,9.57
2022-09-28T11:26:49.778Z,9.61
2022-09-28T11:29:37.925Z,9.70
2022-09-28T11:32:06.452Z,9.73
2022-09-28T11:34:58.492Z,9.67
2022-09-28T11:37:44.056Z,9.67
2022-09-28T11:40:45.087Z,9.66
2022-09-28T11:43:38.553Z,9.60
2022-09-28T11:46:42.445Z,9.58
2022-09-28T11:49:50.097Z,9.62
2022-09-28T11:52:27.745Z,9.60
2022-09-28T11:55:15.852Z,9.62
2022-09-28T11:57:48.208Z,9.69
2022-09-28T12:00:19.485Z,9.67
2022-09-28T12:02:52.351Z,9.76
2022-09-28T12:05:28.830Z,9.71
2022-09-28T12:08:01.101Z,9.79
2022-09-28T12:10:33.984Z,9.77
2022-09-28T12:13:15.131Z,9.73
2022-09-28T12:16:22.971Z,9.59
2022-09-28T12:19:01.783Z,9.48
2022-09-28T12:21:36.691Z,9.50
2022-09-28T12:24:19.471Z,9.45
2022-09-28T12:27:04.807Z,9.39
2022-09-28T12:30:12.375Z,9.40
2022-09-28T12:33:05.118Z,9.36
2022-09-28T12:36:07.117Z,9.40
2022-09-28T12:39:19.163Z,9.34
2022-09-28T12:42:23.565Z,9.38
2022-09-28T12:45:23.656Z,9.41
2022-09-28T12:48:11.882Z,9.47
2022-09-28T12:50:58.581Z,9.51
2022-09-28T12:53:41.826Z,9.47
2022-09-28T12:56:18.080Z,9.50
2022-09-28T12:59:04.898Z,9.49
2022-09-28T13:01:38.834Z,9.51
2022-09-28T13:04:26.058Z,9.54
2022-09-28T13:07:01.570Z,9.53
2022-09-28T13:09:40.360Z,9.51
2022-09-28T13:12:46.898Z,9.51
2022-09-28T13:15:41.749Z,9.54
2022-09-28T13:18:16.222Z,9.56
2022-09-28T13:20:51.499Z,9.56
2022-09-28T13:23:28.250Z,9.60
2022-09-28T13:26:19.089Z,9.59
2022-09-28T13:28:47.104Z,9.59
2022-09-28T13:31:22.099Z,9.64
2022-09-28T13:33:50.313Z,9.66
2022-09-28T13:36:47.834Z,9.67
2022-09-28T13:39:37.844Z,9.69
2022-09-28T13:42:08.581Z,9.70
2022-09-28T13:45:06.379Z,9.73
2022-09-28T13:47:44.415Z,9.68
2022-09-28T13:50:26.461Z,9.72
2022-09-28T13:53:17.494Z,9.79
2022-09-28T13:56:00.504Z,9.87
2022-09-28T13:58:39.154Z,9.86
2022-09-28T14:01:17.937Z,9.77
2022-09-28T14:04:11.451Z,9.89
2022-09-28T14:06:44.495Z,9.92
2022-09-28T14:09:41.317Z,10.01
2022-09-28T14:12:28.566Z,10.01
2022-09-28T14:14:55.331Z,10.04
2022-09-28T14:17:21.733Z,9.97
2022-09-28T14:19:55.493Z,9.98
2022-09-28T14:22:42.570Z,10.03
2022-09-28T14:25:15.199Z,10.07
2022-09-28T14:27:51.480Z,9.96
2022-09-28T14:30:45.222Z,9.98
2022-09-28T14:33:27.206Z,10.05
2022-09-28T14:36:04.037Z,10.06
2022-09-28T14:38:58.159Z,10.02
2022-09-28T14:41:25.173Z,9.89
2022-09-28T14:44:08.474Z,9.81
2022-09-28T14:46:45.818Z,9.87
2022-09-28T14:49:26.895Z,9.81
2022-09-28T14:51:53.318Z,9.81
2022-09-28T14:54:26.564Z,9.80
2022-09-28T14:56:53.221Z,9.81
2022-09-28T14:59:24.979Z,9.78
2022-09-28T15:02:01.099Z,9.68
2022-09-28T15:04:30.727Z,9.69
2022-09-28T15:07:00.434Z,9.65
2022-09-28T15:09:31.507Z,9.62
2022-09-28T15:12:04.522Z,9.62
2022-09-28T15:14:37.491Z,9.62
2022-09-28T15:17:18.324Z,9.63
2022-09-28T15:19:52.301Z,9.59
2022-09-28T15:22:20.785Z,9.56
2022-09-28T15:25:02.822Z,9.55
2022-09-28T15:27:37.902Z,9.54
2022-09-28T15:30:27.890Z,9.51
2022-09-28T15:32:56.982Z,9.51
2022-09-28T15:35:27.952Z,9.50
2022-09-28T15:37:57.359Z,9.48
2022-09-28T15:40:41.974Z,9.46
2022-09-28T15:43:29.454Z,9.44
2022-09-28T15:46:04.550Z,9.44
2022-09-28T15:48:56.604Z,9.43
2022-09-28T15:51:24.494Z,9.43
2022-09-28T15:54:02.471Z,9.43
2022-09-28T15:56:29.422Z,9.43
2022-09-28T15:59:27.466Z,9.41
2022-09-28T16:02:09.881Z,9.38
2022-09-28T16:04:57.172Z,9.33
2022-09-28T16:07:29.917Z,9.33
2022-09-28T16:10:04.371Z,9.29
2022-09-28T16:12:44.513Z,9.27
2022-09-28T16:15:29.442Z,9.26
2022-09-28T16:21:09.568Z,9.25
2022-09-28T16:23:36.926Z,9.23
2022-09-28T16:26:07.857Z,9.22
2022-09-28T16:28:36.718Z,9.19
2022-09-28T16:31:07.856Z,9.16
2022-09-28T16:33:46.937Z,9.15
2022-09-28T16:36:15.919Z,9.15
2022-09-28T16:38:51.850Z,9.15
2022-09-28T16:41:24.842Z,9.09
2022-09-28T16:43:59.248Z,9.07
2022-09-28T16:46:32.454Z,9.06
2022-09-28T16:48:59.917Z,9.05
2022-09-28T16:51:28.213Z,9.02
2022-09-28T16:54:17.673Z,8.96
2022-09-28T16:56:44.392Z,8.94
2022-09-28T16:59:13.680Z,8.94
2022-09-28T17:01:43.732Z,8.95
2022-09-28T17:04:15.548Z,8.94
2022-09-28T17:06:43.537Z,8.94
2022-09-28T17:09:14.919Z,8.94
2022-09-28T17:11:41.653Z,8.94
2022-09-28T17:14:08.909Z,8.95
2022-09-28T17:17:06.233Z,8.94
2022-09-28T17:19:27.359Z,8.89
2022-09-28T17:21:53.943Z,8.87
2022-09-28T17:24:20.867Z,8.87
2022-09-28T17:26:55.363Z,8.85
2022-09-28T17:29:22.124Z,8.86
2022-09-28T17:34:39.007Z,8.85
2022-09-28T17:37:05.534Z,8.84
2022-09-28T17:39:32.212Z,8.80
2022-09-28T17:41:58.805Z,8.76
2022-09-28T17:44:27.148Z,8.72
2022-09-28T17:46:53.957Z,8.69
2022-09-28T17:49:22.164Z,8.64
2022-09-28T17:51:50.163Z,8.61
2022-09-28T17:54:21.191Z,8.58
2022-09-28T17:56:48.122Z,8.56
2022-09-28T17:59:18.535Z,8.54
2022-09-28T18:01:45.055Z,8.53
2022-09-28T18:04:33.335Z,8.53
2022-09-28T18:07:01.803Z,8.48
2022-09-28T18:09:28.352Z,8.45
2022-09-28T18:12:04.160Z,8.41
2022-09-28T18:14:30.766Z,8.39
2022-09-28T18:16:57.310Z,8.38
2022-09-28T18:19:31.799Z,8.36
2022-09-28T18:22:00.528Z,8.34
2022-09-28T18:24:27.029Z,8.30
2022-09-28T18:26:53.674Z,8.28
2022-09-28T18:29:20.157Z,8.24
2022-09-28T18:31:48.660Z,8.24
2022-09-28T18:34:15.597Z,8.21
2022-09-28T18:36:44.290Z,8.22
2022-09-28T18:39:13.044Z,8.23
2022-09-28T18:41:39.508Z,8.23
2022-09-28T18:44:05.981Z,8.25
2022-09-28T18:46:36.373Z,8.25
2022-09-28T18:49:04.596Z,8.26
2022-09-28T18:51:31.159Z,8.23
2022-09-28T18:53:57.740Z,8.22
2022-09-28T18:56:24.754Z,8.21
2022-09-28T18:58:54.315Z,8.19
2022-09-28T19:01:30.511Z,8.16
2022-09-28T19:04:03.229Z,8.15
2022-09-28T19:06:30.555Z,8.15
2022-09-28T19:08:57.569Z,8.13
2022-09-28T19:11:25.207Z,8.11
2022-09-28T19:13:54.414Z,8.09
2022-09-28T19:16:24.097Z,8.06
2022-09-28T19:18:53.955Z,8.03
2022-09-28T19:21:21.104Z,8.03
2022-09-28T19:23:49.715Z,8.00
2022-09-28T19:26:24.172Z,7.98
2022-09-28T19:28:50.801Z,7.96
2022-09-28T19:31:17.808Z,7.95
2022-09-28T19:33:48.264Z,7.95
2022-09-28T19:36:18.472Z,7.96
2022-09-28T19:38:45.515Z,7.97
2022-09-28T19:41:43.382Z,7.97
2022-09-28T19:44:15.745Z,7.95
2022-09-28T19:46:48.445Z,7.92
2022-09-28T19:49:19.662Z,7.91
2022-09-28T19:52:11.499Z,7.91
2022-09-28T19:54:36.804Z,7.91
2022-09-28T19:57:07.861Z,7.91
2022-09-28T19:59:35.699Z,7.91
2022-09-28T20:02:03.187Z,7.90
2022-09-28T20:04:30.012Z,7.90
2022-09-28T20:06:56.689Z,7.89
2022-09-28T20:09:27.798Z,7.87
2022-09-28T20:11:54.371Z,7.87
2022-09-28T20:14:23.373Z,7.87
2022-09-28T20:17:00.395Z,7.85
2022-09-28T20:19:26.923Z,7.85
2022-09-28T20:21:53.908Z,7.85
2022-09-28T20:24:22.264Z,7.86
2022-09-28T20:26:49.630Z,7.86
2022-09-28T20:29:16.568Z,7.87
2022-09-28T20:31:45.485Z,7.86
2022-09-28T20:34:12.146Z,7.85
2022-09-28T20:36:38.879Z,7.83
2022-09-28T20:39:10.037Z,7.81
2022-09-28T20:41:36.703Z,7.78
2022-09-28T20:44:05.899Z,7.78
2022-09-28T20:46:35.837Z,7.78
2022-09-28T20:49:05.066Z,7.77
2022-09-28T20:51:32.077Z,7.75
2022-09-28T20:53:59.541Z,7.71
2022-09-28T20:56:31.597Z,7.70
2022-09-28T20:58:58.100Z,7.70
2022-09-28T21:01:31.735Z,7.69
2022-09-28T21:04:04.713Z,7.69
2022-09-28T21:06:35.604Z,7.70
2022-09-28T21:09:03.474Z,7.69
2022-09-28T21:11:36.050Z,7.66
2022-09-28T21:14:07.738Z,7.67
2022-09-28T21:16:35.454Z,7.64
2022-09-28T21:19:02.236Z,7.62
2022-09-28T21:21:33.089Z,7.60
2022-09-28T21:23:59.629Z,7.59
2022-09-28T21:26:29.157Z,7.58
2022-09-28T21:28:58.124Z,7.59
2022-09-28T21:31:29.218Z,7.60
2022-09-28T21:33:56.784Z,7.60
2022-09-28T21:36:29.985Z,7.59
2022-09-28T21:38:56.851Z,7.61
2022-09-28T21:41:24.701Z,7.60
2022-09-28T21:43:53.624Z,7.62
2022-09-28T21:46:20.300Z,7.64
2022-09-28T21:48:52.439Z,7.64
2022-09-28T21:51:19.360Z,7.64
2022-09-28T21:53:45.923Z,7.64
2022-09-28T21:56:13.213Z,7.65
2022-09-28T21:58:40.534Z,7.67
2022-09-28T22:01:14.762Z,7.67
2022-09-28T22:03:44.177Z,7.68
2022-09-28T22:06:13.380Z,7.69
2022-09-28T22:08:40.087Z,7.69
2022-09-28T22:11:14.143Z,7.68
2022-09-28T22:13:49.042Z,7.70
2022-09-28T22:16:17.886Z,7.72
2022-09-28T22:18:45.291Z,7.71
2022-09-28T22:21:17.488Z,7.73
2022-09-28T22:23:46.503Z,7.73
2022-09-28T22:26:17.813Z,7.73
2022-09-28T22:28:51.239Z,7.74
2022-09-28T22:31:20.253Z,7.75
2022-09-28T22:33:46.977Z,7.77
2022-09-28T22:36:16.789Z,7.78
2022-09-28T22:38:44.401Z,7.77
2022-09-28T22:41:11.229Z,7.77
2022-09-28T22:43:48.002Z,7.75
2022-09-28T22:46:17.509Z,7.75
2022-09-28T22:48:48.811Z,7.78
2022-09-28T22:51:17.649Z,7.79
2022-09-28T22:53:44.721Z,7.77
2022-09-28T22:56:17.518Z,7.75
2022-09-28T22:58:47.579Z,7.74
2022-09-28T23:01:26.434Z,7.75
2022-09-28T23:03:54.283Z,7.75
2022-09-28T23:06:27.194Z,7.75
2022-09-28T23:08:53.973Z,7.77
2022-09-28T23:11:23.377Z,7.77
2022-09-28T23:13:54.674Z,7.76
2022-09-28T23:16:23.497Z,7.78
2022-09-28T23:18:52.240Z,7.77
2022-09-28T23:21:21.561Z,7.75
2022-09-28T23:23:55.293Z,7.71
2022-09-28T23:26:25.230Z,7.72
2022-09-28T23:28:52.692Z,7.71
2022-09-28T23:31:24.899Z,7.71
2022-09-28T23:33:51.734Z,7.72
2022-09-28T23:36:18.219Z,7.71
2022-09-28T23:38:49.423Z,7.71
2022-09-28T23:41:15.891Z,7.73
2022-09-28T23:43:42.423Z,7.73
2022-09-28T23:46:09.011Z,7.74
2022-09-28T23:48:35.524Z,7.75
2022-09-28T23:51:02.458Z,7.72
2022-09-28T23:53:31.381Z,7.71
2022-09-28T23:56:00.477Z,7.72
2022-09-28T23:58:27.578Z,7.73
